Amory, Mississippi
Current Conditions -  °F | °C
As of 8:15 AM on Thursday 29 Jan 2015 (Local Time) from KM40 Reporting Station
Broken Clouds Broken Clouds  
Wind Chill: 50°   Ceiling: 10000
Heat Index: 50°   Visibility: 10mi
Dew Point: 36°   Wind: 12mph
Humidity: 58%   Direction: 170°S
Pressure: 30.18"   Gusts: NA
Location:  33.99°N, 88.49°W
Report Text: KM40 291415Z AUTO 17010KT 10SM BKN100 10/02 A3018 RMK AO2
Loading
Personal Weather Stations






























Interactive Weather Map New forecast layout! Learn more

10-Day Weather Forecast

Advertisements
Track Severe Weather on mobile